Time;durP1;ratioP1;P1;durP2;ratioP2;P2;SDS_P1;SDS_P2;PMS_P1;PMS_P2;Temp;Humidity;BMP_temperature;BMP_pressure;BME280_temperature;BME280_humidity;BME280_pressure;Samples;Min_cycle;Max_cycle;Signal;HPM_P1;HPM_P2
2021/12/30 00:00:41;;;;;;;1999.90;999.90;;;;;;;;;;5034371;28;20040;-82
2021/12/30 00:03:08;;;;;;;1999.90;999.90;;;;;;;;;;5030185;28;20040;-82
2021/12/30 00:05:34;;;;;;;1116.28;516.90;;;;;;;;;;5008786;28;20057;-82
2021/12/30 00:08:00;;;;;;;1513.72;751.75;;;;;;;;;;5032467;28;20026;-84
2021/12/30 00:10:25;;;;;;;1999.90;999.90;;;;;;;;;;5017312;28;20051;-84
2021/12/30 00:12:53;;;;;;;1999.90;999.90;;;;;;;;;;5037266;28;20055;-84
2021/12/30 00:15:18;;;;;;;1999.90;999.90;;;;;;;;;;5005557;28;20033;-83
2021/12/30 00:17:44;;;;;;;1999.90;999.90;;;;;;;;;;4997784;28;20164;-84
2021/12/30 00:20:10;;;;;;;1999.90;999.90;;;;;;;;;;4997740;28;20086;-84
2021/12/30 00:22:37;;;;;;;1999.90;999.90;;;;;;;;;;5026075;28;20078;-84
2021/12/30 00:25:04;;;;;;;1999.90;999.90;;;;;;;;;;5020645;28;20078;-84
2021/12/30 00:27:29;;;;;;;1999.90;999.90;;;;;;;;;;5016058;28;20032;-84
2021/12/30 00:29:55;;;;;;;1999.90;999.90;;;;;;;;;;5036674;28;20090;-83
2021/12/30 00:32:20;;;;;;;1999.90;999.90;;;;;;;;;;5020247;28;20178;-84
2021/12/30 00:34:46;;;;;;;1999.90;999.90;;;;;;;;;;5000878;28;20400;-84
2021/12/30 00:37:11;;;;;;;1999.90;999.90;;;;;;;;;;5021619;28;20745;-84
2021/12/30 00:39:38;;;;;;;1999.90;999.90;;;;;;;;;;5019019;28;20041;-84
2021/12/30 00:42:03;;;;;;;1999.90;999.90;;;;;;;;;;5006061;28;20102;-84
2021/12/30 00:44:29;;;;;;;1531.28;752.47;;;;;;;;;;5037656;28;20068;-84
2021/12/30 00:46:57;;;;;;;1999.90;999.90;;;;;;;;;;5036932;28;20032;-83
2021/12/30 00:49:23;;;;;;;1999.90;999.90;;;;;;;;;;5037305;28;20778;-84
2021/12/30 00:51:49;;;;;;;1999.90;999.90;;;;;;;;;;5020591;28;20025;-84
2021/12/30 00:54:15;;;;;;;1999.90;999.90;;;;;;;;;;5004880;28;20364;-84
2021/12/30 00:56:41;;;;;;;1999.90;999.90;;;;;;;;;;5005032;28;20139;-84
2021/12/30 00:59:07;;;;;;;1999.90;999.90;;;;;;;;;;5025921;28;20569;-84
2021/12/30 01:01:32;;;;;;;1999.90;999.90;;;;;;;;;;5023291;28;20136;-83
2021/12/30 01:03:57;;;;;;;1999.90;999.90;;;;;;;;;;5017177;28;20051;-84
2021/12/30 01:06:24;;;;;;;1999.90;999.90;;;;;;;;;;5017180;28;20103;-84
2021/12/30 01:08:49;;;;;;;1999.90;999.90;;;;;;;;;;5032904;28;20042;-84
2021/12/30 01:11:15;;;;;;;1999.90;999.90;;;;;;;;;;5004371;28;20113;-84
2021/12/30 01:13:44;;;;;;;1999.90;999.90;;;;;;;;;;5004381;28;20060;-84
2021/12/30 01:16:22;;;;;;;1999.90;999.90;;;;;;;;;;5037618;28;20035;-84
2021/12/30 01:19:16;;;;;;;1999.90;999.90;;;;;;;;;;5041300;28;20095;-83
2021/12/30 01:21:41;;;;;;;1999.90;999.90;;;;;;;;;;5030600;28;20556;-84
2021/12/30 01:24:08;;;;;;;1999.90;999.90;;;;;;;;;;5039553;28;20041;-83
2021/12/30 01:26:33;;;;;;;1999.90;999.90;;;;;;;;;;5020510;28;20083;-83
2021/12/30 01:28:59;;;;;;;1999.90;999.90;;;;;;;;;;5005545;28;20033;-84
2021/12/30 01:31:26;;;;;;;1999.90;999.90;;;;;;;;;;5023742;28;20016;-84
2021/12/30 01:33:51;;;;;;;1999.90;999.90;;;;;;;;;;5030964;28;20060;-84
2021/12/30 01:36:17;;;;;;;1999.90;999.90;;;;;;;;;;5016843;28;20068;-84
2021/12/30 01:38:43;;;;;;;1999.90;999.90;;;;;;;;;;5033315;28;20037;-84
2021/12/30 01:41:08;;;;;;;1999.90;999.90;;;;;;;;;;5020284;28;20033;-84
2021/12/30 01:43:36;;;;;;;1551.28;754.60;;;;;;;;;;5000866;28;20034;-84
2021/12/30 01:46:03;;;;;;;1999.90;999.90;;;;;;;;;;5016682;28;20033;-84
2021/12/30 01:48:28;;;;;;;1999.90;999.90;;;;;;;;;;5016559;28;20045;-83
2021/12/30 01:50:55;;;;;;;1999.90;999.90;;;;;;;;;;5015437;28;20017;-84
2021/12/30 01:53:20;;;;;;;1999.90;999.90;;;;;;;;;;4991018;28;20021;-84
2021/12/30 01:55:46;;;;;;;1999.90;999.90;;;;;;;;;;5016835;28;20040;-84
2021/12/30 01:58:13;;;;;;;1999.90;999.90;;;;;;;;;;5033218;28;20034;-84
2021/12/30 02:00:41;;;;;;;1999.90;999.90;;;;;;;;;;5035446;28;20040;-83
2021/12/30 02:03:09;;;;;;;1999.90;999.90;;;;;;;;;;5015039;28;20039;-84
2021/12/30 02:05:35;;;;;;;1999.90;999.90;;;;;;;;;;5032897;28;20034;-84
2021/12/30 02:08:01;;;;;;;1999.90;999.90;;;;;;;;;;5049582;28;20021;-84
2021/12/30 02:10:28;;;;;;;1999.90;999.90;;;;;;;;;;5032786;28;20026;-84
2021/12/30 02:12:54;;;;;;;1999.90;999.90;;;;;;;;;;5016472;28;20419;-84
2021/12/30 02:15:20;;;;;;;1999.90;999.90;;;;;;;;;;5032622;28;20032;-84
2021/12/30 02:17:49;;;;;;;1999.90;999.90;;;;;;;;;;5032318;28;20038;-84
2021/12/30 02:20:45;;;;;;;1999.90;999.90;;;;;;;;;;5016059;28;20087;-84
2021/12/30 02:23:12;;;;;;;1999.90;999.90;;;;;;;;;;5031018;28;20119;-84
2021/12/30 02:25:38;;;;;;;1999.90;999.90;;;;;;;;;;5001106;28;20507;-84
2021/12/30 02:28:10;;;;;;;1999.90;999.90;;;;;;;;;;5004286;28;20116;-84
2021/12/30 02:30:36;;;;;;;;;;;;;;;;;;5016733;28;20079;-84
2021/12/30 02:33:01;;;;;;;1999.90;999.90;;;;;;;;;;5015557;28;19905;-84
2021/12/30 02:35:27;;;;;;;1999.90;999.90;;;;;;;;;;5017539;28;20099;-84
2021/12/30 02:37:52;;;;;;;1999.90;999.90;;;;;;;;;;5035656;28;20021;-83
2021/12/30 02:40:25;;;;;;;1999.90;999.90;;;;;;;;;;5035677;28;20041;-83
2021/12/30 02:42:51;;;;;;;1999.90;999.90;;;;;;;;;;5035267;28;20029;-83
2021/12/30 02:45:16;;;;;;;1999.90;999.90;;;;;;;;;;5027684;28;20051;-83
2021/12/30 02:47:42;;;;;;;1999.90;999.90;;;;;;;;;;5015182;28;20048;-83
2021/12/30 02:50:07;;;;;;;1999.90;999.90;;;;;;;;;;5018282;28;20112;-84
2021/12/30 02:52:33;;;;;;;1999.90;999.90;;;;;;;;;;5002004;28;20051;-83
2021/12/30 02:54:58;;;;;;;1999.90;999.90;;;;;;;;;;5002764;28;20033;-83
2021/12/30 02:57:27;;;;;;;1999.90;999.90;;;;;;;;;;5008971;28;20029;-84
2021/12/30 02:59:53;;;;;;;1999.90;999.90;;;;;;;;;;5037423;28;20036;-84
2021/12/30 03:02:18;;;;;;;1999.90;999.90;;;;;;;;;;5001616;28;20036;-83
2021/12/30 03:04:43;;;;;;;1999.90;999.90;;;;;;;;;;5012432;28;20062;-84
2021/12/30 03:07:09;;;;;;;1999.90;999.90;;;;;;;;;;5037504;28;20033;-84
2021/12/30 03:09:34;;;;;;;1999.90;999.90;;;;;;;;;;5037841;28;20036;-84
2021/12/30 03:12:00;;;;;;;1999.90;999.90;;;;;;;;;;5021484;28;20028;-84
2021/12/30 03:14:26;;;;;;;1999.90;999.90;;;;;;;;;;5019953;28;20031;-84
2021/12/30 03:16:52;;;;;;;1999.90;999.90;;;;;;;;;;5043827;28;20115;-83
2021/12/30 03:19:17;;;;;;;1999.90;999.90;;;;;;;;;;5021261;28;20074;-84
2021/12/30 03:21:43;;;;;;;1999.90;999.90;;;;;;;;;;5037475;28;20115;-83
2021/12/30 03:24:08;;;;;;;1999.90;999.90;;;;;;;;;;5019528;28;20029;-84
2021/12/30 03:26:35;;;;;;;1999.90;999.90;;;;;;;;;;5004644;28;20043;-84
2021/12/30 03:29:03;;;;;;;1999.90;999.90;;;;;;;;;;5023384;28;20025;-83
2021/12/30 03:31:28;;;;;;;1999.90;999.90;;;;;;;;;;4997878;28;20037;-83
2021/12/30 03:33:54;;;;;;;1999.90;999.90;;;;;;;;;;5026309;28;20044;-84
2021/12/30 03:36:19;;;;;;;1999.90;999.90;;;;;;;;;;5008134;28;20040;-83
2021/12/30 03:38:47;;;;;;;1999.90;999.90;;;;;;;;;;5037685;28;20028;-84
2021/12/30 03:41:15;;;;;;;1999.90;999.90;;;;;;;;;;5005178;28;20063;-84
2021/12/30 03:43:40;;;;;;;1999.90;999.90;;;;;;;;;;5034259;28;20043;-84
2021/12/30 03:46:06;;;;;;;1544.85;753.25;;;;;;;;;;5000900;28;20032;-85
2021/12/30 03:48:34;;;;;;;1999.90;999.90;;;;;;;;;;5017817;28;20072;-84
2021/12/30 03:51:06;;;;;;;1999.90;999.90;;;;;;;;;;5018057;28;20036;-84
2021/12/30 03:53:37;;;;;;;1999.90;999.90;;;;;;;;;;5002176;28;20066;-83
2021/12/30 03:56:07;;;;;;;1999.90;999.90;;;;;;;;;;5002724;28;20119;-84
2021/12/30 03:58:33;;;;;;;1999.90;999.90;;;;;;;;;;5034263;28;20083;-84
2021/12/30 04:00:58;;;;;;;1999.90;999.90;;;;;;;;;;5012575;28;20033;-84
2021/12/30 04:03:25;;;;;;;1999.90;999.90;;;;;;;;;;5030917;28;20025;-84
2021/12/30 04:05:51;;;;;;;1999.90;999.90;;;;;;;;;;5028870;28;20028;-84
2021/12/30 04:08:17;;;;;;;1683.10;784.08;;;;;;;;;;5011935;28;20021;-84
2021/12/30 04:10:42;;;;;;;1999.90;999.90;;;;;;;;;;5018062;28;20033;-84
2021/12/30 04:13:08;;;;;;;1999.90;999.90;;;;;;;;;;5000817;28;20090;-84
2021/12/30 04:15:33;;;;;;;1999.90;999.90;;;;;;;;;;5000400;28;20484;-84
2021/12/30 04:17:59;;;;;;;1999.90;999.90;;;;;;;;;;5001145;28;20025;-84
2021/12/30 04:20:24;;;;;;;1999.90;999.90;;;;;;;;;;5035408;28;20113;-84
2021/12/30 04:22:50;;;;;;;1999.90;999.90;;;;;;;;;;5036663;28;20032;-84
2021/12/30 04:25:16;;;;;;;1999.90;999.90;;;;;;;;;;5024700;28;20038;-85
2021/12/30 04:27:42;;;;;;;1999.90;999.90;;;;;;;;;;5029857;28;20372;-84
2021/12/30 04:30:09;;;;;;;1999.90;999.90;;;;;;;;;;5026827;28;20036;-84
2021/12/30 04:32:35;;;;;;;1999.90;999.90;;;;;;;;;;5020383;28;20095;-84
2021/12/30 04:35:01;;;;;;;1999.90;999.90;;;;;;;;;;5028886;28;20138;-85
2021/12/30 04:37:26;;;;;;;1999.90;999.90;;;;;;;;;;5015210;28;20510;-85
2021/12/30 04:39:52;;;;;;;1999.90;999.90;;;;;;;;;;5013884;28;20038;-85
2021/12/30 04:42:17;;;;;;;1999.90;999.90;;;;;;;;;;5001984;28;20029;-83
2021/12/30 04:44:43;;;;;;;1999.90;999.90;;;;;;;;;;5000589;28;20047;-84
2021/12/30 04:47:10;;;;;;;1999.90;999.90;;;;;;;;;;5000831;28;20029;-85
2021/12/30 04:49:37;;;;;;;1999.90;999.90;;;;;;;;;;5002890;28;20032;-84
2021/12/30 04:52:03;;;;;;;1999.90;999.90;;;;;;;;;;5018592;28;20025;-84
2021/12/30 04:54:29;;;;;;;1999.90;999.90;;;;;;;;;;5001194;28;20040;-84
2021/12/30 04:56:55;;;;;;;1999.90;999.90;;;;;;;;;;5017570;28;20029;-83
2021/12/30 04:59:20;;;;;;;1999.90;999.90;;;;;;;;;;5016888;28;20033;-84
2021/12/30 05:01:46;;;;;;;1999.90;999.90;;;;;;;;;;5014761;28;20087;-84
2021/12/30 05:04:11;;;;;;;1999.90;999.90;;;;;;;;;;5000395;28;20033;-84
2021/12/30 05:06:37;;;;;;;1999.90;999.90;;;;;;;;;;5042587;28;20755;-84
2021/12/30 05:09:03;;;;;;;1999.90;999.90;;;;;;;;;;5063493;28;20046;-83
2021/12/30 05:11:29;;;;;;;1999.90;999.90;;;;;;;;;;5032885;28;20164;-83
2021/12/30 05:13:55;;;;;;;1999.90;999.90;;;;;;;;;;4999876;28;20071;-83
2021/12/30 05:16:21;;;;;;;1999.90;999.90;;;;;;;;;;5026994;28;20116;-83
2021/12/30 05:18:48;;;;;;;1999.90;999.90;;;;;;;;;;5046480;28;20095;-84
2021/12/30 05:21:14;;;;;;;1999.90;999.90;;;;;;;;;;5013856;28;20033;-83
2021/12/30 05:23:39;;;;;;;1999.90;999.90;;;;;;;;;;5016674;28;20036;-83
2021/12/30 05:26:05;;;;;;;1999.90;999.90;;;;;;;;;;5018627;28;20025;-84
2021/12/30 05:28:30;;;;;;;1999.90;999.90;;;;;;;;;;5020640;28;20090;-84
2021/12/30 05:30:57;;;;;;;1999.90;999.90;;;;;;;;;;5005087;28;20036;-84
2021/12/30 05:33:22;;;;;;;1999.90;999.90;;;;;;;;;;5021998;28;20036;-83
2021/12/30 05:35:48;;;;;;;1999.90;999.90;;;;;;;;;;5040487;28;20079;-83
2021/12/30 05:38:17;;;;;;;1999.90;999.90;;;;;;;;;;5032623;28;20120;-83
2021/12/30 05:40:42;;;;;;;1539.13;753.78;;;;;;;;;;5042624;28;20025;-83
2021/12/30 05:43:08;;;;;;;1999.90;999.90;;;;;;;;;;5017048;28;20040;-83
2021/12/30 05:45:33;;;;;;;1999.90;999.90;;;;;;;;;;5032774;28;20068;-83
2021/12/30 05:47:59;;;;;;;1999.90;999.90;;;;;;;;;;5019905;28;20033;-83
2021/12/30 05:50:26;;;;;;;1999.90;999.90;;;;;;;;;;5013289;28;20120;-84
2021/12/30 05:52:52;;;;;;;1999.90;999.90;;;;;;;;;;5032029;28;20029;-83
2021/12/30 05:55:17;;;;;;;1999.90;999.90;;;;;;;;;;5032496;28;20049;-84
2021/12/30 05:57:43;;;;;;;1999.90;999.90;;;;;;;;;;5005677;28;20040;-83
2021/12/30 06:00:10;;;;;;;1999.90;999.90;;;;;;;;;;5019874;28;20095;-83
2021/12/30 06:02:36;;;;;;;1999.90;999.90;;;;;;;;;;5008628;28;20025;-83
2021/12/30 06:05:01;;;;;;;1999.90;999.90;;;;;;;;;;5016504;28;20040;-83
2021/12/30 06:07:27;;;;;;;1999.90;999.90;;;;;;;;;;5032384;28;20056;-84
2021/12/30 06:09:52;;;;;;;1999.90;999.90;;;;;;;;;;5038757;28;20402;-83
2021/12/30 06:12:18;;;;;;;1999.90;999.90;;;;;;;;;;5039128;28;20040;-83
2021/12/30 06:14:43;;;;;;;1999.90;999.90;;;;;;;;;;5020405;28;20041;-83
2021/12/30 06:17:11;;;;;;;1999.90;999.90;;;;;;;;;;5003098;28;20063;-83
2021/12/30 06:19:36;;;;;;;1999.90;999.90;;;;;;;;;;5015028;28;20033;-84
2021/12/30 06:22:02;;;;;;;1999.90;999.90;;;;;;;;;;5019392;28;20542;-84
2021/12/30 06:24:28;;;;;;;1999.90;999.90;;;;;;;;;;5032311;28;20234;-83
2021/12/30 06:26:53;;;;;;;1999.90;999.90;;;;;;;;;;5026794;28;20468;-84
2021/12/30 06:29:18;;;;;;;1999.90;999.90;;;;;;;;;;5019245;28;20040;-84
2021/12/30 06:31:44;;;;;;;1999.90;999.90;;;;;;;;;;5003421;28;20052;-83
2021/12/30 06:34:10;;;;;;;1999.90;999.90;;;;;;;;;;5002858;28;20434;-83
2021/12/30 06:36:36;;;;;;;1999.90;999.90;;;;;;;;;;5035517;28;20059;-83
2021/12/30 06:39:02;;;;;;;1999.90;999.90;;;;;;;;;;5002409;28;20471;-83
2021/12/30 06:41:27;;;;;;;1999.90;999.90;;;;;;;;;;5015635;28;20038;-83
2021/12/30 06:43:53;;;;;;;1999.90;999.90;;;;;;;;;;5032015;28;20100;-83
2021/12/30 06:46:20;;;;;;;1999.90;999.90;;;;;;;;;;5015562;28;20037;-82
2021/12/30 06:48:46;;;;;;;1999.90;999.90;;;;;;;;;;5025107;28;20053;-81
2021/12/30 06:51:12;;;;;;;1999.90;999.90;;;;;;;;;;5001584;28;20091;-83
2021/12/30 06:53:38;;;;;;;1999.90;999.90;;;;;;;;;;5018133;28;20040;-82
2021/12/30 06:56:03;;;;;;;1999.90;999.90;;;;;;;;;;5050859;28;20119;-82
2021/12/30 06:58:29;;;;;;;1999.90;999.90;;;;;;;;;;4990935;28;20029;-82
2021/12/30 07:00:55;;;;;;;1999.90;999.90;;;;;;;;;;5021378;28;20037;-82
2021/12/30 07:03:21;;;;;;;1999.90;999.90;;;;;;;;;;5041506;28;20030;-82
2021/12/30 07:05:46;;;;;;;1999.90;999.90;;;;;;;;;;5017705;28;20444;-83
2021/12/30 07:08:12;;;;;;;1999.90;999.90;;;;;;;;;;5051249;28;20864;-82
2021/12/30 07:10:37;;;;;;;1999.90;999.90;;;;;;;;;;5002073;28;20431;-83
2021/12/30 07:13:03;;;;;;;1999.90;999.90;;;;;;;;;;5002225;28;20033;-83
2021/12/30 07:15:28;;;;;;;1999.90;999.90;;;;;;;;;;5001816;28;20037;-82
2021/12/30 07:17:53;;;;;;;1999.90;999.90;;;;;;;;;;5017892;28;20060;-80
2021/12/30 07:20:20;;;;;;;1999.90;999.90;;;;;;;;;;5018280;28;20394;-84
2021/12/30 07:22:45;;;;;;;1999.90;999.90;;;;;;;;;;5002860;28;20029;-83
2021/12/30 07:25:16;;;;;;;1999.90;999.90;;;;;;;;;;4982454;28;20106;-84
2021/12/30 07:27:43;;;;;;;1999.90;999.90;;;;;;;;;;5033738;28;20033;-84
2021/12/30 07:30:09;;;;;;;1999.90;999.90;;;;;;;;;;5003611;28;20041;-84
2021/12/30 07:32:35;;;;;;;1999.90;999.90;;;;;;;;;;5031135;28;20112;-82
2021/12/30 07:35:00;;;;;;;1999.90;999.90;;;;;;;;;;5009676;28;20032;-83
2021/12/30 07:37:26;;;;;;;1999.90;999.90;;;;;;;;;;5030605;28;20056;-84
2021/12/30 07:39:51;;;;;;;1999.90;999.90;;;;;;;;;;5034179;28;20040;-83
2021/12/30 07:42:16;;;;;;;1999.90;999.90;;;;;;;;;;5050961;28;20482;-83
2021/12/30 07:44:42;;;;;;;1999.90;999.90;;;;;;;;;;5001535;28;20029;-83
2021/12/30 07:47:07;;;;;;;1999.90;999.90;;;;;;;;;;5001051;28;20051;-83
2021/12/30 07:49:36;;;;;;;1999.90;999.90;;;;;;;;;;5029334;28;20509;-83
2021/12/30 07:52:04;;;;;;;1999.90;999.90;;;;;;;;;;5021446;28;20024;-84
2021/12/30 07:54:30;;;;;;;1999.90;999.90;;;;;;;;;;5038640;28;20028;-85
2021/12/30 07:56:55;;;;;;;1999.90;999.90;;;;;;;;;;5038428;28;20027;-85
2021/12/30 07:59:22;;;;;;;1999.90;999.90;;;;;;;;;;5037622;28;20032;-88
2021/12/30 08:01:49;;;;;;;1999.90;999.90;;;;;;;;;;5027258;28;20036;-86
2021/12/30 08:04:14;;;;;;;1999.90;999.90;;;;;;;;;;5018170;28;20039;-85
2021/12/30 08:06:40;;;;;;;1999.90;999.90;;;;;;;;;;5001699;28;20025;-87
2021/12/30 08:09:09;;;;;;;1999.90;999.90;;;;;;;;;;5018845;28;20437;-86
2021/12/30 08:11:34;;;;;;;1999.90;999.90;;;;;;;;;;5002128;28;20052;-86
2021/12/30 08:14:00;;;;;;;1999.90;999.90;;;;;;;;;;5034623;28;20039;-85
2021/12/30 08:16:28;;;;;;;1999.90;999.90;;;;;;;;;;5000890;28;20037;-85
2021/12/30 08:18:55;;;;;;;1999.90;999.90;;;;;;;;;;5017926;28;20099;-86
2021/12/30 08:21:22;;;;;;;1999.90;999.90;;;;;;;;;;5034935;28;20048;-86
2021/12/30 08:23:51;;;;;;;1999.90;999.90;;;;;;;;;;5034251;28;20506;-85
2021/12/30 08:26:16;;;;;;;1999.90;999.90;;;;;;;;;;5031378;28;20397;-86
2021/12/30 08:28:42;;;;;;;1999.90;999.90;;;;;;;;;;5014638;28;20067;-84
2021/12/30 08:31:07;;;;;;;1538.72;752.88;;;;;;;;;;5013865;28;20088;-84
2021/12/30 08:33:33;;;;;;;1999.90;999.90;;;;;;;;;;5000453;28;20037;-84
2021/12/30 08:35:59;;;;;;;1999.90;999.90;;;;;;;;;;5010254;28;20033;-84
2021/12/30 08:38:24;;;;;;;1999.90;999.90;;;;;;;;;;5014103;28;20036;-84
2021/12/30 08:40:50;;;;;;;1999.90;999.90;;;;;;;;;;5014240;28;20029;-85
2021/12/30 08:43:17;;;;;;;1999.90;999.90;;;;;;;;;;5031425;28;20025;-85
2021/12/30 08:45:43;;;;;;;1999.90;999.90;;;;;;;;;;5026009;28;20044;-84
2021/12/30 08:48:09;;;;;;;1999.90;999.90;;;;;;;;;;5014067;28;20045;-84
2021/12/30 08:50:35;;;;;;;1999.90;999.90;;;;;;;;;;5029684;28;20029;-84
2021/12/30 08:53:01;;;;;;;1999.90;999.90;;;;;;;;;;5013836;28;20157;-84
2021/12/30 08:55:28;;;;;;;1999.90;999.90;;;;;;;;;;4998660;28;20029;-84
2021/12/30 08:57:53;;;;;;;1999.90;999.90;;;;;;;;;;5020556;28;20037;-83
2021/12/30 09:00:24;;;;;;;1999.90;999.90;;;;;;;;;;5038731;28;20052;-84
2021/12/30 09:02:51;;;;;;;1999.90;999.90;;;;;;;;;;5008242;28;20067;-83
2021/12/30 09:05:16;;;;;;;1999.90;999.90;;;;;;;;;;5000888;28;20052;-84
2021/12/30 09:07:43;;;;;;;1999.90;999.90;;;;;;;;;;5047604;28;20025;-84
2021/12/30 09:10:09;;;;;;;1999.90;999.90;;;;;;;;;;4996850;28;20087;-83
2021/12/30 09:12:35;;;;;;;1999.90;999.90;;;;;;;;;;5037238;28;20432;-83
2021/12/30 09:15:02;;;;;;;1999.90;999.90;;;;;;;;;;5018170;28;20057;-83
2021/12/30 09:17:28;;;;;;;1999.90;999.90;;;;;;;;;;5027759;28;20411;-84
2021/12/30 09:19:53;;;;;;;1999.90;999.90;;;;;;;;;;5016642;28;20025;-83
2021/12/30 09:22:19;;;;;;;1999.90;999.90;;;;;;;;;;5033634;28;20415;-83
2021/12/30 09:24:44;;;;;;;1999.90;999.90;;;;;;;;;;5050464;28;20099;-84
2021/12/30 09:27:11;;;;;;;1999.90;999.90;;;;;;;;;;5060782;28;20115;-85
2021/12/30 09:29:37;;;;;;;1999.90;999.90;;;;;;;;;;5023575;28;20037;-84
2021/12/30 09:32:03;;;;;;;1999.90;999.90;;;;;;;;;;5023597;28;20921;-86
2021/12/30 09:34:29;;;;;;;1999.90;999.90;;;;;;;;;;5009480;28;20029;-84
2021/12/30 09:36:55;;;;;;;1999.90;999.90;;;;;;;;;;5025808;28;20025;-85
2021/12/30 09:39:22;;;;;;;1999.90;999.90;;;;;;;;;;5017590;28;20036;-84
2021/12/30 09:41:47;;;;;;;1999.90;999.90;;;;;;;;;;5028604;28;20037;-85
2021/12/30 09:44:15;;;;;;;1999.90;999.90;;;;;;;;;;5023685;28;20039;-84
2021/12/30 09:46:40;;;;;;;1999.90;999.90;;;;;;;;;;5013724;28;20433;-84
2021/12/30 09:49:07;;;;;;;1999.90;999.90;;;;;;;;;;5035698;28;20041;-84
2021/12/30 09:51:35;;;;;;;1999.90;999.90;;;;;;;;;;5069831;28;20056;-84
2021/12/30 09:54:01;;;;;;;1999.90;999.90;;;;;;;;;;5036557;28;20036;-84
2021/12/30 09:56:28;;;;;;;1999.90;999.90;;;;;;;;;;5004355;28;20033;-86
2021/12/30 09:58:54;;;;;;;1999.90;999.90;;;;;;;;;;5036539;28;20067;-85
2021/12/30 10:01:20;;;;;;;1999.90;999.90;;;;;;;;;;5016156;28;20030;-84
2021/12/30 10:03:46;;;;;;;1999.90;999.90;;;;;;;;;;5049089;28;20090;-85
2021/12/30 10:06:16;;;;;;;1999.90;999.90;;;;;;;;;;5039288;28;20071;-85
2021/12/30 10:08:58;;;;;;;1999.90;999.90;;;;;;;;;;5023200;28;20020;-85
2021/12/30 10:11:24;;;;;;;1999.90;999.90;;;;;;;;;;5022358;28;20421;-84
2021/12/30 10:13:55;;;;;;;1999.90;999.90;;;;;;;;;;5013034;28;20082;-84
2021/12/30 10:16:21;;;;;;;1999.90;999.90;;;;;;;;;;5018569;28;20108;-84
2021/12/30 10:18:55;;;;;;;1999.90;999.90;;;;;;;;;;5036313;28;20086;-84
2021/12/30 10:21:25;;;;;;;1999.90;999.90;;;;;;;;;;5020097;28;20036;-88
2021/12/30 10:23:55;;;;;;;1999.90;999.90;;;;;;;;;;5019968;28;20036;-85
2021/12/30 10:26:22;;;;;;;1999.90;999.90;;;;;;;;;;5017189;28;20037;-85
2021/12/30 10:28:51;;;;;;;1999.90;999.90;;;;;;;;;;5000687;28;20472;-86
2021/12/30 10:31:20;;;;;;;1999.90;999.90;;;;;;;;;;5032438;28;20052;-85
2021/12/30 10:33:52;;;;;;;1999.90;999.90;;;;;;;;;;5032019;28;20122;-84
2021/12/30 10:36:27;;;;;;;;;;;;;;;;;;5038980;28;20561;-84
2021/12/30 10:38:54;;;;;;;1999.90;999.90;;;;;;;;;;5036392;28;19909;-84
2021/12/30 10:41:24;;;;;;;1999.90;999.90;;;;;;;;;;5039157;28;20028;-84
2021/12/30 10:43:54;;;;;;;1999.90;999.90;;;;;;;;;;5039433;28;20036;-83
2021/12/30 10:46:27;;;;;;;1999.90;999.90;;;;;;;;;;5017065;28;20035;-84
2021/12/30 10:49:28;;;;;;;1999.90;999.90;;;;;;;;;;5035493;28;20570;-83
2021/12/30 10:51:54;;;;;;;1999.90;999.90;;;;;;;;;;5037949;28;20029;-84
2021/12/30 10:54:22;;;;;;;91.28;11.65;;;;;;;;;;4999416;28;20037;-85
2021/12/30 10:56:58;;;;;;;1999.90;999.90;;;;;;;;;;5048810;28;20424;-86
2021/12/30 10:59:28;;;;;;;1999.90;999.90;;;;;;;;;;5032258;28;20047;-86
2021/12/30 11:02:00;;;;;;;1999.90;999.90;;;;;;;;;;5048362;28;20030;-87
2021/12/30 11:04:32;;;;;;;1999.90;999.90;;;;;;;;;;5032611;28;20040;-87
2021/12/30 11:06:59;;;;;;;;;;;;;;;;;;5033529;28;20149;-87
2021/12/30 11:09:25;;;;;;;1999.90;999.90;;;;;;;;;;5049152;28;19909;-88
2021/12/30 11:11:58;;;;;;;1999.90;999.90;;;;;;;;;;5048416;28;20128;-86
2021/12/30 11:14:32;;;;;;;1999.90;999.90;;;;;;;;;;5031729;28;20025;-86
2021/12/30 11:17:06;;;;;;;1999.90;999.90;;;;;;;;;;5015923;28;20037;-86
2021/12/30 11:19:37;;;;;;;1999.90;999.90;;;;;;;;;;5032978;28;20118;-87
2021/12/30 11:22:08;;;;;;;1999.90;999.90;;;;;;;;;;5015396;28;20080;-86
2021/12/30 11:24:35;;;;;;;1999.90;999.90;;;;;;;;;;5014388;28;20040;-86
2021/12/30 11:27:03;;;;;;;1999.90;999.90;;;;;;;;;;5031741;28;20041;-86
2021/12/30 11:29:30;;;;;;;1999.90;999.90;;;;;;;;;;4999367;28;20034;-86
2021/12/30 11:31:56;;;;;;;1027.10;503.75;;;;;;;;;;5031477;28;20029;-86
2021/12/30 11:34:23;;;;;;;1999.90;999.90;;;;;;;;;;5048057;28;20034;-86
2021/12/30 11:36:48;;;;;;;1999.90;999.90;;;;;;;;;;5048466;28;20029;-85
2021/12/30 11:39:17;;;;;;;1999.90;999.90;;;;;;;;;;5047709;28;20040;-86
2021/12/30 11:41:54;;;;;;;1999.90;999.90;;;;;;;;;;5029981;28;20057;-86
2021/12/30 11:44:43;;;;;;;1999.90;999.90;;;;;;;;;;4999717;28;20052;-86
2021/12/30 11:47:47;;;;;;;1999.90;999.90;;;;;;;;;;5016706;28;20037;-86
2021/12/30 11:50:26;;;;;;;1999.90;999.90;;;;;;;;;;4974288;28;20157;-86
2021/12/30 11:53:01;;;;;;;1999.90;999.90;;;;;;;;;;4972877;28;20061;-84
2021/12/30 11:55:47;;;;;;;1999.90;999.90;;;;;;;;;;5007877;28;20152;-85
2021/12/30 11:58:27;;;;;;;1999.90;999.90;;;;;;;;;;5019626;28;20033;-84
2021/12/30 12:00:58;;;;;;;1999.90;999.90;;;;;;;;;;5064767;28;20032;-84
2021/12/30 12:03:37;;;;;;;1533.47;752.92;;;;;;;;;;5025386;28;20182;-83
2021/12/30 12:06:04;;;;;;;1999.90;999.90;;;;;;;;;;5032164;28;20108;-84
2021/12/30 12:08:32;;;;;;;1999.90;999.90;;;;;;;;;;4999871;28;20025;-83
2021/12/30 12:11:29;;;;;;;1999.90;999.90;;;;;;;;;;5018036;28;20032;-83
2021/12/30 12:14:10;;;;;;;1999.90;999.90;;;;;;;;;;5037125;28;20032;-84
2021/12/30 12:16:46;;;;;;;1999.90;999.90;;;;;;;;;;5013838;28;20099;-83
2021/12/30 12:19:11;;;;;;;1999.90;999.90;;;;;;;;;;5032417;28;20091;-84
2021/12/30 12:21:48;;;;;;;1999.90;999.90;;;;;;;;;;5030166;28;20033;-83
2021/12/30 12:24:22;;;;;;;1999.90;999.90;;;;;;;;;;5014673;28;20037;-84
2021/12/30 12:26:56;;;;;;;1999.90;999.90;;;;;;;;;;5024729;28;20032;-84
2021/12/30 12:29:28;;;;;;;1999.90;999.90;;;;;;;;;;4997970;28;20069;-83
2021/12/30 12:32:02;;;;;;;1999.90;999.90;;;;;;;;;;5030315;28;20041;-84
2021/12/30 12:34:39;;;;;;;1999.90;999.90;;;;;;;;;;5014170;28;20037;-83
2021/12/30 12:37:26;;;;;;;1999.90;999.90;;;;;;;;;;5034798;28;20112;-83
2021/12/30 12:40:15;;;;;;;1999.90;999.90;;;;;;;;;;5023437;28;20040;-84
2021/12/30 12:42:43;;;;;;;1999.90;999.90;;;;;;;;;;5037171;28;20043;-84
2021/12/30 12:45:41;;;;;;;1999.90;999.90;;;;;;;;;;5043739;28;20405;-83
2021/12/30 12:48:15;;;;;;;1999.90;999.90;;;;;;;;;;5037308;28;20118;-83
2021/12/30 12:50:42;;;;;;;1999.90;999.90;;;;;;;;;;5073996;28;20036;-84
2021/12/30 12:53:28;;;;;;;1534.03;752.75;;;;;;;;;;5024537;28;20070;-84
2021/12/30 12:56:00;;;;;;;1999.90;999.90;;;;;;;;;;5041635;28;20029;-84
2021/12/30 12:58:33;;;;;;;1999.90;999.90;;;;;;;;;;5001536;28;20088;-84
2021/12/30 13:01:01;;;;;;;1999.90;999.90;;;;;;;;;;5012008;28;20093;-83
2021/12/30 13:03:27;;;;;;;1999.90;999.90;;;;;;;;;;5009426;28;20029;-83
2021/12/30 13:05:53;;;;;;;1999.90;999.90;;;;;;;;;;5037391;28;20125;-83
2021/12/30 13:08:20;;;;;;;1999.90;999.90;;;;;;;;;;5017324;28;20036;-83
2021/12/30 13:10:45;;;;;;;1999.90;999.90;;;;;;;;;;5029846;28;20059;-83
2021/12/30 13:13:11;;;;;;;1999.90;999.90;;;;;;;;;;5040348;28;20043;-83
2021/12/30 13:15:40;;;;;;;1999.90;999.90;;;;;;;;;;5056542;28;20040;-83
2021/12/30 13:18:15;;;;;;;1999.90;999.90;;;;;;;;;;5023977;28;20399;-83
2021/12/30 13:20:41;;;;;;;1999.90;999.90;;;;;;;;;;5030451;28;20020;-83
2021/12/30 13:23:07;;;;;;;1999.90;999.90;;;;;;;;;;5038637;28;20040;-83
2021/12/30 13:25:32;;;;;;;1999.90;999.90;;;;;;;;;;5023491;28;20056;-83
2021/12/30 13:28:03;;;;;;;1999.90;999.90;;;;;;;;;;5001052;28;20041;-83
2021/12/30 13:30:28;;;;;;;1999.90;999.90;;;;;;;;;;5033550;28;20065;-83
2021/12/30 13:32:54;;;;;;;1999.90;999.90;;;;;;;;;;5000833;28;20369;-83
2021/12/30 13:35:22;;;;;;;1999.90;999.90;;;;;;;;;;5035989;28;20025;-83
2021/12/30 13:38:02;;;;;;;1999.90;999.90;;;;;;;;;;5020573;28;20051;-83
2021/12/30 13:40:32;;;;;;;1999.90;999.90;;;;;;;;;;5036824;28;20136;-83
2021/12/30 13:43:08;;;;;;;1999.90;999.90;;;;;;;;;;5039837;28;20031;-84
2021/12/30 13:45:35;;;;;;;1999.90;999.90;;;;;;;;;;5022566;28;20045;-84